Addington, Oklahoma
Current Conditions -  °F | °C
As of 6:15 AM on Thursday 29 Jan 2015 (Local Time) from KDUC Reporting Station
Clear Clear  
Wind Chill: 55°   Ceiling: Unl
Heat Index: 55°   Visibility: 10mi
Dew Point: 34°   Wind: 15mph
Humidity: 44%   Direction: 10°N
Pressure: 30.18"   Gusts: 21mph
Location:  34.24°N, 97.97°W
Report Text: KDUC 291215Z AUTO 01013G18KT 10SM CLR 13/01 A3018 RMK AO2
Loading
Personal Weather Stations






























Interactive Weather Map New forecast layout! Learn more

10-Day Weather Forecast

Advertisements
Track Severe Weather on mobile